Time;durP1;ratioP1;P1;durP2;ratioP2;P2;SDS_P1;SDS_P2;PMS_P1;PMS_P2;Temp;Humidity;BMP_temperature;BMP_pressure;BME280_temperature;BME280_humidity;BME280_pressure;Samples;Min_cycle;Max_cycle;Signal;HPM_P1;HPM_P2
2023/01/18 00:00:59;;;;;;;14.40;5.03;;;;;;;-2.54;100.00;98542.00;5982104;29;20495;-72
2023/01/18 00:03:54;;;;;;;17.25;6.25;;;;;;;-2.97;100.00;98553.97;5981403;29;20088;-73
2023/01/18 00:06:49;;;;;;;13.38;5.35;;;;;;;-2.75;100.00;98553.19;5982273;29;20069;-70
2023/01/18 00:09:45;;;;;;;18.50;5.47;;;;;;;-2.59;100.00;98545.88;5981562;29;20125;-74
2023/01/18 00:12:40;;;;;;;17.20;4.63;;;;;;;-3.20;100.00;98537.53;5981566;29;20043;-71
2023/01/18 00:15:36;;;;;;;19.63;4.83;;;;;;;-3.20;100.00;98539.28;5981742;29;20070;-71
2023/01/18 00:18:34;;;;;;;10.30;3.88;;;;;;;-3.47;100.00;98539.56;5981670;29;20391;-74
2023/01/18 00:21:30;;;;;;;11.35;3.85;;;;;;;-3.64;100.00;98535.59;5981518;29;20043;-71
2023/01/18 00:24:26;;;;;;;8.63;3.33;;;;;;;-3.57;100.00;98524.81;5980654;29;20090;-71
2023/01/18 00:27:21;;;;;;;9.75;3.47;;;;;;;-3.08;100.00;98544.41;5981598;29;20043;-71
2023/01/18 00:30:22;;;;;;;11.10;3.90;;;;;;;-3.13;100.00;98530.13;5981222;28;20043;-72
2023/01/18 00:33:17;;;;;;;9.10;3.75;;;;;;;-3.32;100.00;98520.31;5981082;29;20051;-72
2023/01/18 00:36:13;;;;;;;7.83;3.33;;;;;;;-2.55;100.00;98518.75;5981180;29;20031;-70
2023/01/18 00:39:09;;;;;;;16.33;4.53;;;;;;;-2.54;100.00;98520.41;5981257;29;20031;-72
2023/01/18 00:45:18;;;;;;;9.18;3.63;;;;;;;-2.08;100.00;98520.22;5979186;28;20035;-72
2023/01/18 00:48:13;;;;;;;12.13;4.72;;;;;;;-2.07;100.00;98507.16;5980691;29;20050;-70
2023/01/18 00:51:14;;;;;;;9.27;4.30;;;;;;;-2.36;100.00;98505.19;5980850;29;20069;-71
2023/01/18 00:54:09;;;;;;;15.02;4.55;;;;;;;-2.26;100.00;98522.53;5980180;29;20109;-72
2023/01/18 00:57:05;;;;;;;7.57;3.70;;;;;;;-2.25;100.00;98512.94;5980534;29;20035;-72
2023/01/18 01:00:00;;;;;;;13.13;4.00;;;;;;;-2.24;100.00;98525.81;5980575;29;20045;-72
2023/01/18 01:02:55;;;;;;;9.73;4.30;;;;;;;-2.21;100.00;98511.75;5980066;29;20031;-70
2023/01/18 01:09:04;;;;;;;12.15;4.38;;;;;;;-3.10;100.00;98519.53;5980877;29;20271;-70
2023/01/18 01:28:09;;;;;;;6.90;3.33;;;;;;;-2.35;100.00;98535.38;5980493;29;20043;-71
2023/01/18 01:31:06;;;;;;;12.03;3.97;;;;;;;-3.16;100.00;98535.53;5979835;29;20039;-70
2023/01/18 01:34:01;;;;;;;10.65;3.85;;;;;;;-3.55;100.00;98551.41;5979484;29;20398;-69
2023/01/18 01:36:57;;;;;;;12.37;4.27;;;;;;;-3.72;100.00;98544.88;5979574;29;20059;-69
2023/01/18 01:39:52;;;;;;;6.32;3.47;;;;;;;-3.64;100.00;98555.50;5979695;29;20122;-70
2023/01/18 01:42:48;;;;;;;6.53;3.33;;;;;;;-3.40;100.00;98563.25;5978829;28;20388;-68
2023/01/18 01:45:43;;;;;;;8.25;3.67;;;;;;;-2.74;100.00;98563.41;5979368;28;20039;-69
2023/01/18 01:48:38;;;;;;;7.00;3.30;;;;;;;-2.67;100.00;98548.22;5979619;29;20035;-71
2023/01/18 01:51:37;;;;;;;11.77;3.33;;;;;;;-2.36;100.00;98551.91;5979592;29;20027;-70
2023/01/18 01:54:36;;;;;;;12.07;3.63;;;;;;;-2.60;100.00;98560.59;5978608;29;20143;-69
2023/01/18 01:57:39;;;;;;;14.20;4.38;;;;;;;-3.32;100.00;98559.19;5979700;29;20039;-72
2023/01/18 02:00:35;;;;;;;9.40;3.42;;;;;;;-3.52;100.00;98569.31;5979284;29;20047;-70
2023/01/18 02:03:30;;;;;;;8.63;3.50;;;;;;;-2.97;100.00;98556.56;5961466;29;20039;-69
2023/01/18 02:06:31;;;;;;;7.60;3.35;;;;;;;-2.80;100.00;98563.06;5979413;29;20030;-68
2023/01/18 02:09:26;;;;;;;8.02;3.55;;;;;;;-2.57;100.00;98551.75;5979321;29;20442;-68
2023/01/18 02:12:22;;;;;;;11.73;3.80;;;;;;;-2.66;100.00;98555.06;5978377;29;20106;-69
2023/01/18 02:15:20;;;;;;;11.15;3.85;;;;;;;-3.13;100.00;98540.50;5979372;29;20091;-70
2023/01/18 02:18:28;;;;;;;13.48;3.72;;;;;;;-3.74;100.00;98557.94;5971739;29;20038;-71
2023/01/18 02:21:27;;;;;;;10.93;3.20;;;;;;;-4.26;100.00;98547.84;5976587;29;20375;-70
2023/01/18 02:24:54;;;;;;;11.00;3.33;;;;;;;-4.41;100.00;98563.63;5978630;29;20027;-70
2023/01/18 02:28:05;;;;;;;6.78;3.28;;;;;;;-4.69;100.00;98531.06;5978734;29;20055;-68
2023/01/18 02:31:12;;;;;;;12.18;3.78;;;;;;;-4.60;100.00;98556.31;5976149;29;20162;-71
2023/01/18 02:34:29;;;;;;;10.95;3.33;;;;;;;-4.09;100.00;98546.66;5961387;29;20039;-69
2023/01/18 02:37:28;;;;;;;15.80;3.83;;;;;;;-3.28;100.00;98559.75;5961369;29;20049;-68
2023/01/18 02:40:36;;;;;;;12.32;3.17;;;;;;;-3.11;100.00;98559.34;5979189;29;20047;-70
2023/01/18 02:46:46;;;;;;;15.70;4.45;;;;;;;-3.16;100.00;98562.28;5962844;29;20043;-69
2023/01/18 02:49:41;;;;;;;9.43;4.37;;;;;;;-3.07;100.00;98565.94;5978948;29;20039;-69
2023/01/18 02:52:45;;;;;;;8.60;3.63;;;;;;;-2.76;100.00;98575.69;5967368;29;20279;-70
2023/01/18 02:56:00;;;;;;;12.75;3.28;;;;;;;-2.87;100.00;98578.25;5981770;29;20026;-70
2023/01/18 02:58:57;;;;;;;;;;;;;;;-2.83;100.00;98574.50;5943908;29;20031;-69
2023/01/18 03:01:56;;;;;;;9.13;3.72;;;;;;;-2.81;100.00;98567.44;5965778;29;19910;-68
2023/01/18 03:04:55;;;;;;;8.52;3.40;;;;;;;-2.61;100.00;98584.88;5983287;29;20390;-68
2023/01/18 03:08:05;;;;;;;9.45;4.10;;;;;;;-3.13;100.00;98581.97;5966704;29;20082;-70
2023/01/18 03:11:03;;;;;;;9.65;3.55;;;;;;;-3.76;100.00;98572.75;5965774;29;20035;-70
2023/01/18 03:14:21;;;;;;;8.68;3.67;;;;;;;-4.05;100.00;98599.84;5982578;29;20475;-67
2023/01/18 03:17:27;;;;;;;9.38;3.42;;;;;;;-3.98;100.00;98580.38;5965699;29;20065;-68
2023/01/18 03:20:30;;;;;;;10.90;4.00;;;;;;;-3.95;100.00;98600.88;5966190;29;20045;-69
2023/01/18 03:23:38;;;;;;;11.93;4.35;;;;;;;-4.02;100.00;98599.63;5964903;29;20027;-68
2023/01/18 03:26:39;;;;;;;14.00;5.63;;;;;;;-4.12;100.00;98596.03;5967237;29;20035;-69
2023/01/18 03:36:03;;;;;;;16.65;5.18;;;;;;;-3.94;100.00;98610.28;5968091;29;20023;-68
2023/01/18 03:39:02;;;;;;;13.10;4.45;;;;;;;-4.00;100.00;98589.19;5965308;29;20093;-67
2023/01/18 03:42:08;;;;;;;14.32;5.10;;;;;;;-4.09;100.00;98601.00;5964705;29;20035;-68
2023/01/18 03:45:13;;;;;;;17.25;6.22;;;;;;;-4.08;100.00;98600.09;5964535;28;20046;-67
2023/01/18 03:48:09;;;;;;;13.77;5.43;;;;;;;-4.09;100.00;98601.00;5982204;29;20035;-67
2023/01/18 03:51:14;;;;;;;14.98;5.63;;;;;;;-4.04;100.00;98601.50;5965013;29;20039;-69
2023/01/18 03:54:18;;;;;;;19.17;6.63;;;;;;;-4.02;100.00;98619.53;5964280;29;20543;-67
2023/01/18 03:57:13;;;;;;;22.20;6.15;;;;;;;-3.98;100.00;98629.56;5964973;29;20063;-68
2023/01/18 04:00:10;;;;;;;26.45;7.28;;;;;;;-3.91;100.00;98630.75;5982006;29;20193;-68
2023/01/18 04:03:05;;;;;;;18.40;6.07;;;;;;;-3.87;100.00;98634.81;5980685;29;20095;-68
2023/01/18 04:06:03;;;;;;;19.60;5.97;;;;;;;-3.83;100.00;98635.44;5981686;28;20486;-69
2023/01/18 04:08:58;;;;;;;17.00;6.50;;;;;;;-3.90;100.00;98626.41;5964717;29;20039;-70
2023/01/18 04:11:53;;;;;;;10.30;4.47;;;;;;;-3.81;100.00;98636.97;5981211;29;20065;-67
2023/01/18 04:14:49;;;;;;;13.80;5.40;;;;;;;-3.89;100.00;98626.34;5981902;29;20043;-68
2023/01/18 04:17:44;;;;;;;15.13;6.03;;;;;;;-3.85;100.00;98630.34;5981420;29;20043;-68
2023/01/18 04:20:39;;;;;;;14.53;6.13;;;;;;;-3.73;100.00;98639.00;5981588;29;20042;-68
2023/01/18 04:23:35;;;;;;;14.77;4.73;;;;;;;-3.66;100.00;98635.88;5980706;29;20474;-69
2023/01/18 04:26:33;;;;;;;13.95;4.20;;;;;;;-3.23;100.00;98632.78;5981623;29;20102;-69
2023/01/18 04:29:28;;;;;;;11.45;4.43;;;;;;;-3.03;100.00;98645.13;5981657;29;20043;-67
2023/01/18 04:32:23;;;;;;;10.05;3.65;;;;;;;-3.50;100.00;98635.59;5980737;29;20390;-70
2023/01/18 04:35:19;;;;;;;10.37;4.10;;;;;;;-3.59;100.00;98651.00;5981185;28;20464;-69
2023/01/18 04:38:14;;;;;;;12.20;4.13;;;;;;;-3.71;100.00;98647.50;5981183;29;20043;-68
2023/01/18 04:41:09;;;;;;;7.88;3.25;;;;;;;-3.75;100.00;98641.69;5981580;29;20075;-67
2023/01/18 04:44:05;;;;;;;10.97;3.77;;;;;;;-3.84;100.00;98660.47;5980495;29;20036;-69
2023/01/18 04:47:00;;;;;;;10.73;3.60;;;;;;;-3.33;100.00;98650.78;5980973;28;20044;-69
2023/01/18 04:49:56;;;;;;;9.43;3.67;;;;;;;-3.35;100.00;98652.66;5980984;29;20069;-68
2023/01/18 04:52:53;;;;;;;10.65;4.78;;;;;;;-3.30;100.00;98637.59;5979866;29;20490;-70
2023/01/18 04:55:48;;;;;;;13.18;4.57;;;;;;;-3.09;100.00;98666.31;5981035;29;20066;-69
2023/01/18 04:58:44;;;;;;;11.47;4.30;;;;;;;-3.39;100.00;98668.50;5980555;29;20549;-70
2023/01/18 05:01:39;;;;;;;12.43;3.92;;;;;;;-3.24;100.00;98654.47;5980696;29;20023;-69
2023/01/18 05:04:35;;;;;;;10.10;5.13;;;;;;;-3.21;100.00;98674.97;5980351;29;20078;-70
2023/01/18 05:07:32;;;;;;;13.20;3.70;;;;;;;-3.10;100.00;98667.25;5980414;29;20039;-67
2023/01/18 05:10:28;;;;;;;13.00;4.85;;;;;;;-3.77;100.00;98679.81;5979941;29;20078;-69
2023/01/18 05:13:23;;;;;;;6.82;2.70;;;;;;;-3.50;100.00;98678.81;5980002;29;20110;-69
2023/01/18 05:16:20;;;;;;;14.13;4.03;;;;;;;-3.90;100.00;98678.19;5979870;28;20035;-70
2023/01/18 05:19:16;;;;;;;11.00;4.00;;;;;;;-3.50;100.00;98686.56;5980379;29;20038;-68
2023/01/18 05:22:11;;;;;;;10.83;3.50;;;;;;;-3.90;100.00;98689.38;5979675;29;20039;-69
2023/01/18 05:25:07;;;;;;;13.27;4.78;;;;;;;-4.04;100.00;98686.91;5980405;29;20027;-69
2023/01/18 05:28:03;;;;;;;10.55;4.50;;;;;;;-4.02;100.00;98685.03;5979522;29;20089;-69
2023/01/18 05:30:58;;;;;;;8.70;3.77;;;;;;;-3.85;100.00;98696.81;5980112;29;20472;-69
2023/01/18 05:33:55;;;;;;;11.80;3.60;;;;;;;-3.43;100.00;98690.41;5978898;29;20333;-67
2023/01/18 05:36:50;;;;;;;12.68;4.28;;;;;;;-3.91;100.00;98703.22;5979662;29;20043;-67
2023/01/18 05:39:46;;;;;;;16.50;4.70;;;;;;;-3.85;100.00;98702.81;5979996;29;20082;-67
2023/01/18 05:42:41;;;;;;;9.25;3.72;;;;;;;-3.84;100.00;98704.47;5979212;29;20046;-70
2023/01/18 05:45:36;;;;;;;14.30;4.40;;;;;;;-3.55;100.00;98699.03;5979488;28;20035;-67
2023/01/18 05:48:32;;;;;;;14.17;4.37;;;;;;;-3.65;100.00;98714.38;5979817;29;20283;-69
2023/01/18 05:51:27;;;;;;;17.57;5.20;;;;;;;-3.84;100.00;98725.19;5979074;29;20493;-69
2023/01/18 05:54:22;;;;;;;10.57;3.97;;;;;;;-3.52;100.00;98725.53;5979190;29;20035;-69
2023/01/18 05:57:17;;;;;;;9.97;4.23;;;;;;;-3.78;100.00;98714.38;5979851;29;20035;-68
2023/01/18 06:00:13;;;;;;;14.13;4.20;;;;;;;-3.31;100.00;98730.97;5979062;28;20039;-69
2023/01/18 06:03:08;;;;;;;9.85;4.55;;;;;;;-3.66;100.00;98728.25;5978914;29;20019;-70
2023/01/18 06:06:04;;;;;;;17.33;5.90;;;;;;;-3.92;100.00;98735.25;5979505;29;20475;-68
2023/01/18 06:09:00;;;;;;;16.93;7.00;;;;;;;-3.62;100.00;98727.97;5979350;29;20082;-68
2023/01/18 06:11:55;;;;;;;13.10;5.47;;;;;;;-3.56;100.00;98720.69;5978905;29;20925;-69
2023/01/18 06:14:50;;;;;;;13.70;5.50;;;;;;;-3.48;100.00;98720.97;5979216;29;20031;-69
2023/01/18 06:17:46;;;;;;;16.10;5.43;;;;;;;-3.32;100.00;98717.22;5979107;29;20046;-70
2023/01/18 06:20:41;;;;;;;16.53;5.77;;;;;;;-2.83;100.00;98740.44;5979154;29;20039;-69
2023/01/18 06:23:37;;;;;;;20.80;6.20;;;;;;;-2.98;100.00;98732.91;5978654;29;20115;-68
2023/01/18 06:26:33;;;;;;;19.83;8.18;;;;;;;-3.15;100.00;98734.94;5979017;29;20122;-68
2023/01/18 06:29:29;;;;;;;30.80;8.55;;;;;;;-3.23;100.00;98715.69;5978669;29;20043;-69
2023/01/18 06:32:24;;;;;;;20.15;6.07;;;;;;;-3.57;100.00;98742.34;5978517;29;20031;-68
2023/01/18 06:35:20;;;;;;;12.93;5.23;;;;;;;-3.46;100.00;98750.19;5978628;29;20058;-67
2023/01/18 06:38:15;;;;;;;16.52;5.50;;;;;;;-3.31;100.00;98752.53;5979216;29;20050;-69
2023/01/18 06:41:11;;;;;;;22.87;6.37;;;;;;;-3.19;100.00;98743.06;5978952;29;20390;-70
2023/01/18 06:44:06;;;;;;;19.33;6.50;;;;;;;-2.97;100.00;98748.38;5978267;29;20471;-69
2023/01/18 06:47:01;;;;;;;20.73;5.97;;;;;;;-3.14;100.00;98757.34;5978659;28;20546;-68
2023/01/18 06:49:57;;;;;;;14.03;5.07;;;;;;;-3.90;100.00;98761.84;5977972;29;20390;-70
2023/01/18 06:52:54;;;;;;;15.53;5.20;;;;;;;-4.17;100.00;98794.75;5978391;29;20046;-69
2023/01/18 06:55:57;;;;;;;15.43;5.78;;;;;;;-3.87;100.00;98784.94;5977700;29;20091;-70
2023/01/18 06:58:54;;;;;;;10.35;4.10;;;;;;;-3.39;100.00;98795.44;5971711;29;20035;-69
2023/01/18 07:01:53;;;;;;;11.65;4.85;;;;;;;-3.30;100.00;98782.69;5976954;28;20406;-68
2023/01/18 07:04:48;;;;;;;18.40;5.05;;;;;;;-3.29;100.00;98791.28;5978356;29;20150;-69
2023/01/18 07:07:45;;;;;;;16.40;6.97;;;;;;;-3.03;100.00;98790.28;5978836;28;20035;-68
2023/01/18 07:10:40;;;;;;;12.13;4.53;;;;;;;-3.16;100.00;98784.31;5978431;28;20372;-70
2023/01/18 07:13:39;;;;;;;14.00;4.40;;;;;;;-3.05;100.00;98792.16;5976621;29;20035;-68
2023/01/18 07:16:34;;;;;;;15.10;6.07;;;;;;;-3.00;100.00;98805.63;5978040;28;20035;-68
2023/01/18 07:19:29;;;;;;;18.60;6.27;;;;;;;-3.56;100.00;98811.34;5978246;29;20130;-69
2023/01/18 07:22:24;;;;;;;12.53;4.33;;;;;;;-3.83;100.00;98835.53;5977922;29;20490;-68
2023/01/18 07:25:20;;;;;;;19.13;5.60;;;;;;;-3.38;100.00;98820.41;5978273;29;20059;-70
2023/01/18 07:28:15;;;;;;;14.23;6.10;;;;;;;-3.07;100.00;98832.88;5978574;29;20028;-70
2023/01/18 07:31:10;;;;;;;14.47;5.33;;;;;;;-3.07;100.00;98820.75;5978281;29;20043;-68
2023/01/18 07:34:08;;;;;;;17.53;6.57;;;;;;;-3.27;100.00;98820.50;5977458;29;20106;-68
2023/01/18 07:37:03;;;;;;;15.25;5.53;;;;;;;-3.43;100.00;98835.47;5978433;29;20123;-69
2023/01/18 07:39:58;;;;;;;13.53;5.80;;;;;;;-3.05;100.00;98823.25;5978210;28;20051;-69
2023/01/18 07:42:57;;;;;;;12.97;5.33;;;;;;;-2.96;100.00;98838.16;5981490;29;20570;-69
2023/01/18 07:45:53;;;;;;;21.70;5.38;;;;;;;-3.31;100.00;98832.84;5982233;28;20039;-68
2023/01/18 07:48:48;;;;;;;16.13;5.68;;;;;;;-3.85;100.00;98840.00;5982769;29;20031;-69
2023/01/18 07:51:43;;;;;;;11.33;4.83;;;;;;;-3.31;100.00;98838.03;5981815;29;20509;-70
2023/01/18 07:54:39;;;;;;;12.87;5.57;;;;;;;-3.10;100.00;98864.22;5981706;29;20338;-69
2023/01/18 07:57:34;;;;;;;16.13;4.23;;;;;;;-3.65;100.00;98865.41;5982511;29;20117;-68
2023/01/18 08:00:29;;;;;;;13.13;5.17;;;;;;;-3.46;100.00;98858.97;5981213;29;20035;-70
2023/01/18 08:03:24;;;;;;;14.60;4.63;;;;;;;-2.95;100.00;98876.09;5964153;29;20039;-68
2023/01/18 08:06:23;;;;;;;17.27;5.50;;;;;;;-2.74;100.00;98877.19;5981590;28;20039;-68
2023/01/18 08:09:18;;;;;;;14.00;5.47;;;;;;;-3.11;100.00;98883.28;5981967;29;20063;-70
2023/01/18 08:12:16;;;;;;;13.17;4.97;;;;;;;-3.57;100.00;98871.81;5981271;29;20097;-68
2023/01/18 08:15:12;;;;;;;17.75;5.30;;;;;;;-3.72;100.00;98878.84;5980666;28;20505;-68
2023/01/18 08:18:07;;;;;;;14.80;5.70;;;;;;;-3.76;100.00;98888.59;5982081;29;20035;-68
2023/01/18 08:21:03;;;;;;;15.55;6.05;;;;;;;-3.04;100.00;98897.47;5981986;29;20447;-68
2023/01/18 08:23:58;;;;;;;15.30;5.22;;;;;;;-3.11;100.00;98901.44;5980874;29;20034;-68
2023/01/18 08:26:53;;;;;;;18.67;5.83;;;;;;;-2.99;100.00;98905.78;5981775;29;20157;-70
2023/01/18 08:29:49;;;;;;;13.47;5.33;;;;;;;-2.82;100.00;98907.19;5981512;29;20043;-68
2023/01/18 08:32:44;;;;;;;11.33;5.27;;;;;;;-2.74;100.00;98890.16;5980638;29;20043;-68
2023/01/18 08:35:46;;;;;;;14.27;6.00;;;;;;;-2.45;100.00;98912.25;5981285;29;20031;-68
2023/01/18 08:38:42;;;;;;;21.73;6.07;;;;;;;-2.61;100.00;98906.50;5981178;29;20354;-69
2023/01/18 08:41:37;;;;;;;13.30;5.17;;;;;;;-2.87;100.00;98912.69;5981326;29;20043;-69
2023/01/18 08:44:32;;;;;;;12.43;5.57;;;;;;;-2.50;100.00;98901.38;5980498;28;20027;-68
2023/01/18 08:47:27;;;;;;;16.30;6.00;;;;;;;-2.28;100.00;98913.66;5981229;29;20039;-68
2023/01/18 08:50:23;;;;;;;12.53;6.30;;;;;;;-2.29;100.00;98913.78;5980599;28;20042;-69
2023/01/18 08:53:19;;;;;;;12.43;5.97;;;;;;;-2.33;100.00;98922.72;5968343;28;20035;-68
2023/01/18 08:56:14;;;;;;;19.60;7.57;;;;;;;-2.25;100.00;98923.81;5980882;29;20039;-68
2023/01/18 08:59:09;;;;;;;14.40;6.13;;;;;;;-2.20;100.00;98919.13;5980874;29;20035;-70
2023/01/18 09:02:05;;;;;;;13.23;5.13;;;;;;;-2.06;100.00;98931.09;5980402;29;20046;-69
2023/01/18 09:05:00;;;;;;;17.30;6.57;;;;;;;-2.08;100.00;98922.59;5980320;28;20023;-70
2023/01/18 09:07:56;;;;;;;16.97;5.80;;;;;;;-2.20;100.00;98939.88;5980462;29;20054;-70
2023/01/18 09:10:52;;;;;;;17.90;5.45;;;;;;;-2.30;100.00;98938.91;5980807;29;20533;-70
2023/01/18 09:13:47;;;;;;;15.30;5.63;;;;;;;-2.04;100.00;98942.25;5979576;29;20039;-69
2023/01/18 09:16:42;;;;;;;14.02;6.68;;;;;;;-1.88;100.00;98947.97;5980332;29;20035;-70
2023/01/18 09:19:38;;;;;;;9.90;4.93;;;;;;;-1.97;100.00;98943.44;5980228;29;20406;-69
2023/01/18 09:22:33;;;;;;;12.70;5.13;;;;;;;-1.99;100.00;98934.94;5978882;29;20042;-69
2023/01/18 09:25:28;;;;;;;12.57;5.17;;;;;;;-2.04;100.00;98948.22;5979727;29;20035;-70
2023/01/18 09:28:24;;;;;;;13.13;5.03;;;;;;;-1.85;100.00;98943.34;5979581;28;20109;-69
2023/01/18 09:31:21;;;;;;;9.60;5.37;;;;;;;-1.73;100.00;98936.44;5979769;29;20531;-69
2023/01/18 09:34:17;;;;;;;11.45;4.82;;;;;;;-1.62;100.00;98944.28;5978591;29;20386;-71
2023/01/18 09:37:12;;;;;;;13.80;5.25;;;;;;;-1.69;100.00;98947.44;5979264;29;20146;-70
2023/01/18 09:40:22;;;;;;;15.70;5.32;;;;;;;-1.70;100.00;98951.81;5979554;28;20592;-70
2023/01/18 09:43:25;;;;;;;11.00;4.82;;;;;;;-1.53;100.00;98963.56;5955751;29;20047;-70
2023/01/18 09:46:21;;;;;;;14.07;5.47;;;;;;;-1.44;100.00;98950.69;5979842;28;20071;-72
2023/01/18 09:49:31;;;;;;;14.48;4.93;;;;;;;-1.35;100.00;98956.97;5979502;28;20410;-71
2023/01/18 09:52:46;;;;;;;15.50;5.47;;;;;;;-1.36;100.00;98953.56;5978892;29;20471;-71
2023/01/18 09:55:50;;;;;;;13.40;6.07;;;;;;;-1.22;100.00;98979.34;5978908;29;20486;-72
2023/01/18 09:58:52;;;;;;;16.20;5.80;;;;;;;-1.10;100.00;98976.78;5979814;29;20489;-74
2023/01/18 10:01:48;;;;;;;17.25;6.30;;;;;;;-0.98;100.00;98963.66;5979117;29;20035;-72
2023/01/18 10:04:49;;;;;;;11.38;5.07;;;;;;;-0.88;100.00;98966.41;5978035;28;20035;-74
2023/01/18 10:08:01;;;;;;;13.48;5.10;;;;;;;-0.77;100.00;98969.00;5961238;29;20098;-74
2023/01/18 10:11:09;;;;;;;17.15;6.32;;;;;;;-0.72;100.00;98967.72;5978726;29;20043;-71
2023/01/18 10:14:22;;;;;;;13.23;5.50;;;;;;;-0.58;100.00;98964.03;5961615;29;20032;-71
2023/01/18 10:17:21;;;;;;;15.00;6.05;;;;;;;-0.49;100.00;98973.72;5979212;29;20043;-73
2023/01/18 10:20:27;;;;;;;13.95;5.85;;;;;;;-0.41;100.00;98981.78;5978903;29;20031;-72
2023/01/18 10:23:40;;;;;;;13.88;5.47;;;;;;;-0.21;100.00;98986.22;5978296;29;20130;-71
2023/01/18 10:26:37;;;;;;;12.30;4.97;;;;;;;0.04;100.00;98984.28;5961390;29;20039;-73
2023/01/18 10:29:49;;;;;;;19.65;5.80;;;;;;;-0.26;100.00;98970.16;5960495;29;20047;-75
2023/01/18 10:32:52;;;;;;;13.48;5.65;;;;;;;-0.10;100.00;98975.78;5961178;29;20046;-74
2023/01/18 10:35:50;;;;;;;14.30;5.32;;;;;;;0.05;99.72;98983.34;5978875;28;20566;-74
2023/01/18 10:38:46;;;;;;;12.23;5.35;;;;;;;0.07;98.90;98971.03;5961768;29;20043;-73
2023/01/18 10:41:42;;;;;;;14.27;4.53;;;;;;;0.28;97.82;98990.97;5979385;29;20035;-72
2023/01/18 10:44:38;;;;;;;16.35;5.13;;;;;;;0.21;96.31;98979.38;5978214;28;20427;-71
2023/01/18 10:47:33;;;;;;;14.70;6.07;;;;;;;0.43;95.38;98978.47;5978588;29;20045;-74
2023/01/18 10:50:34;;;;;;;13.57;5.17;;;;;;;0.39;94.05;98961.41;5962172;29;20027;-73
2023/01/18 10:53:32;;;;;;;11.25;4.72;;;;;;;0.69;93.72;98992.81;5978650;29;20035;-73
2023/01/18 10:56:27;;;;;;;12.40;5.25;;;;;;;0.73;92.56;98996.00;5978455;29;20050;-72
2023/01/18 10:59:25;;;;;;;10.67;4.50;;;;;;;0.84;91.86;98981.13;5962298;29;20492;-73
2023/01/18 11:02:33;;;;;;;11.93;4.50;;;;;;;1.02;90.47;98978.72;5977430;29;20035;-72
2023/01/18 11:05:31;;;;;;;12.13;4.78;;;;;;;1.18;89.01;98981.72;5979025;29;20031;-73
2023/01/18 11:08:31;;;;;;;18.10;4.85;;;;;;;1.39;87.85;98994.72;5966993;29;20066;-73
2023/01/18 11:14:43;;;;;;;11.50;5.30;;;;;;;1.55;85.01;98975.00;5978641;28;20070;-73
2023/01/18 11:17:59;;;;;;;11.10;5.17;;;;;;;1.50;85.56;98973.72;5965676;29;20035;-72
2023/01/18 11:20:56;;;;;;;11.90;4.72;;;;;;;1.61;86.89;98990.13;5983029;29;20031;-74
2023/01/18 11:23:52;;;;;;;12.73;4.40;;;;;;;1.59;85.26;98979.00;5983263;29;20558;-76
2023/01/18 11:27:11;;;;;;;11.48;4.00;;;;;;;1.67;84.85;98989.63;5983770;29;20102;-75
2023/01/18 11:30:20;;;;;;;9.95;4.78;;;;;;;1.40;84.82;98978.09;5961482;29;20055;-75
2023/01/18 11:33:18;;;;;;;9.32;5.00;;;;;;;1.33;85.33;98995.25;5958777;29;20031;-75
2023/01/18 11:36:13;;;;;;;10.48;5.20;;;;;;;1.19;86.63;98999.03;5984039;29;20039;-73
2023/01/18 11:39:26;;;;;;;11.23;4.73;;;;;;;0.94;86.64;98984.59;5966680;29;20499;-74
2023/01/18 11:42:30;;;;;;;11.57;4.70;;;;;;;0.89;86.56;98994.59;5983333;29;20035;-74
2023/01/18 11:45:31;;;;;;;10.75;4.68;;;;;;;0.75;86.50;98986.25;5966767;29;20338;-75
2023/01/18 11:49:02;;;;;;;14.88;5.20;;;;;;;0.86;87.77;99001.84;5967408;29;20030;-74
2023/01/18 11:52:04;;;;;;;11.90;4.55;;;;;;;0.73;87.56;98994.22;5960653;29;20411;-75
2023/01/18 11:55:02;;;;;;;16.95;5.55;;;;;;;0.80;87.46;98997.13;5984217;29;20134;-76
2023/01/18 11:57:58;;;;;;;15.70;5.80;;;;;;;0.84;87.78;98988.94;5965803;29;20039;-75
2023/01/18 12:01:22;;;;;;;18.23;5.78;;;;;;;0.95;87.99;99008.91;5982692;29;20542;-73
2023/01/18 12:04:20;;;;;;;14.73;5.50;;;;;;;0.93;87.06;99018.63;5964329;29;20114;-75
2023/01/18 12:07:43;;;;;;;14.00;5.25;;;;;;;0.91;88.15;99013.56;5982674;29;20039;-76
2023/01/18 12:10:59;;;;;;;14.18;5.45;;;;;;;0.85;87.99;99016.66;5981440;29;20028;-73
2023/01/18 12:14:02;;;;;;;12.40;5.03;;;;;;;0.87;88.30;99009.53;5982032;29;20102;-75
2023/01/18 12:17:13;;;;;;;17.40;5.72;;;;;;;0.79;88.77;98998.09;5964407;29;20035;-76
2023/01/18 12:20:35;;;;;;;11.27;4.75;;;;;;;0.98;90.29;99012.06;5965105;29;20438;-76
2023/01/18 12:23:48;;;;;;;12.75;4.93;;;;;;;1.07;90.16;99020.94;5955200;29;20035;-74
2023/01/18 12:26:56;;;;;;;11.82;5.18;;;;;;;1.09;90.00;99019.84;5969185;28;20130;-74
2023/01/18 12:30:09;;;;;;;12.02;5.03;;;;;;;1.14;89.62;99022.88;5964610;29;20043;-75
2023/01/18 12:33:19;;;;;;;12.05;5.60;;;;;;;1.13;86.84;99029.09;5962947;29;20487;-74
2023/01/18 12:36:28;;;;;;;12.40;5.22;;;;;;;1.17;87.28;99027.03;5964541;29;20031;-76
2023/01/18 12:39:32;;;;;;;13.35;5.07;;;;;;;1.12;87.37;99018.75;5982014;29;20038;-75
2023/01/18 12:42:31;;;;;;;15.95;4.82;;;;;;;1.30;87.92;99027.66;5978509;29;20035;-75
2023/01/18 12:46:04;;;;;;;10.30;4.63;;;;;;;1.29;88.24;99025.19;5962176;29;20082;-75
2023/01/18 12:49:17;;;;;;;14.45;5.50;;;;;;;1.15;87.46;99024.56;5964283;29;20046;-75
2023/01/18 12:52:15;;;;;;;10.18;4.18;;;;;;;1.18;86.22;99019.09;5967173;29;20467;-75
2023/01/18 12:55:19;;;;;;;12.63;5.10;;;;;;;1.15;86.89;99029.78;5964138;29;20046;-75
2023/01/18 12:58:21;;;;;;;11.38;4.80;;;;;;;1.19;87.29;99031.19;5963002;29;20550;-74
2023/01/18 13:01:20;;;;;;;15.23;5.47;;;;;;;1.13;86.65;99023.03;5964083;29;20075;-75
2023/01/18 13:04:45;;;;;;;10.80;4.15;;;;;;;1.14;86.08;99038.53;5980133;29;20125;-75
2023/01/18 13:07:50;;;;;;;11.02;5.22;;;;;;;1.19;85.67;99061.69;5973286;29;20078;-75
2023/01/18 13:10:46;;;;;;;17.70;5.95;;;;;;;1.23;86.47;99057.00;5962932;29;20042;-74
2023/01/18 13:13:43;;;;;;;18.48;5.80;;;;;;;1.07;87.30;99045.25;5980010;29;20047;-74
2023/01/18 13:16:44;;;;;;;11.75;4.93;;;;;;;1.29;86.96;99048.66;5979052;28;20035;-74
2023/01/18 13:19:59;;;;;;;13.20;5.05;;;;;;;1.26;87.22;99062.81;5979827;29;20046;-74
2023/01/18 13:23:19;;;;;;;10.77;5.95;;;;;;;1.24;87.10;99063.91;5962275;29;20117;-75
2023/01/18 13:26:26;;;;;;;14.52;5.30;;;;;;;1.28;87.29;99071.34;5979627;29;20055;-75
2023/01/18 13:29:25;;;;;;;13.73;5.28;;;;;;;1.26;87.27;99070.63;5980573;29;20051;-74
2023/01/18 13:32:33;;;;;;;10.23;5.20;;;;;;;1.28;86.08;99081.78;5958515;29;20514;-74
2023/01/18 13:35:32;;;;;;;13.65;5.70;;;;;;;1.24;86.95;99087.38;5980349;29;20481;-74
2023/01/18 13:38:28;;;;;;;15.95;5.65;;;;;;;1.32;87.19;99085.78;5979593;28;20035;-73
2023/01/18 13:41:28;;;;;;;17.27;6.25;;;;;;;1.29;86.95;99074.78;5962817;29;20110;-74
2023/01/18 13:44:29;;;;;;;17.60;5.70;;;;;;;1.25;86.42;99083.84;5962309;28;20129;-73
2023/01/18 13:47:42;;;;;;;12.02;5.45;;;;;;;1.31;87.35;99080.69;5980276;29;20122;-74
2023/01/18 13:50:39;;;;;;;12.50;5.40;;;;;;;1.17;87.96;99074.84;5979933;29;20042;-74
2023/01/18 13:53:48;;;;;;;16.35;5.90;;;;;;;1.09;88.03;99071.19;5968486;29;20402;-74
2023/01/18 13:57:08;;;;;;;10.73;5.55;;;;;;;1.24;87.97;99095.22;5979546;29;20031;-74
2023/01/18 14:00:04;;;;;;;14.57;5.20;;;;;;;1.16;88.82;99093.25;5979660;29;20507;-74
2023/01/18 14:03:14;;;;;;;19.92;6.03;;;;;;;1.05;88.59;99091.53;5961224;29;20117;-74
2023/01/18 14:06:34;;;;;;;14.68;5.65;;;;;;;1.04;88.76;99100.28;5962183;29;20402;-72
2023/01/18 14:09:43;;;;;;;13.60;5.60;;;;;;;0.92;88.86;99110.91;5974827;28;20093;-74
2023/01/18 14:12:53;;;;;;;15.23;5.53;;;;;;;0.93;88.38;99102.13;5979523;29;20118;-73
2023/01/18 14:15:51;;;;;;;12.13;5.13;;;;;;;0.90;88.06;99108.41;5978568;28;20035;-74
2023/01/18 14:19:15;;;;;;;12.55;5.28;;;;;;;0.93;89.08;99134.25;5978706;29;20035;-73
2023/01/18 14:22:51;;;;;;;14.55;5.60;;;;;;;0.90;88.80;99129.28;5978465;29;20039;-73
2023/01/18 14:25:54;;;;;;;15.38;5.65;;;;;;;0.85;89.46;99128.84;5979561;29;20118;-72
2023/01/18 14:28:53;;;;;;;12.25;5.45;;;;;;;0.82;88.67;99136.91;5962500;29;20134;-73